仙台空港の過去48時間の天気

仙台空港 (Sendai)

現在時刻: 6/19 15:01 JST (6/19 06:01 UTC) 以下の時間は現地時間です。

過去48時間のMETAR気象情報
時間 風向 風速(m/s) 視程 気温(℃) 湿度(%) 気圧(hPa) 天気現象
19 14:00 東北東 4 10km以上 20 88 1007 弱いしゅう雨
19 13:00 5 10km以上 21 78 1007
19 12:00 東北東 5 10km以上 21 83 1007
19 11:00 4 10km以上 22 78 1007
19 10:00 東北東 2 10km以上 21 83 1008
19 09:00 北北東 2 10km以上 20 83 1008 弱いしゅう雨
19 08:00 北北東 2 10km以上 20 83 1008 弱いしゅう雨
19 07:00 不定 1 10km以上 19 88 1009
19 06:00 北西 2 10km以上 18 94 1009
19 05:30 北北東 1 10km以上 17 94 1009 弱いしゅう雨
18 21:00 不定 1 10km以上 19 88 1010
18 20:00 不定 1 10km以上 19 94 1010
18 19:00 南西 3 10km以上 21 78 1010 周辺でしゅう雨
18 17:00 不定 1 10km以上 20 78 1009
18 16:00 2 10km以上 20 78 1010
18 15:00 北東 3 10km以上 19 88 1010
18 14:00 3 10km以上 20 73 1011
18 13:00 4 10km以上 18 68 1011
18 12:00 4 10km以上 18 77 1012
18 11:00 東北東 4 10km以上 19 68 1013
18 10:00 2 10km以上 18 68 1013
18 09:00 南南東 2 10km以上 17 72 1013
18 08:00 3 10km以上 17 83 1014 弱いしゅう雨
18 07:00 南南東 2 10km以上 16 88 1014
18 06:00 南西 2 10km以上 15 82 1014
18 05:30 不定 1 10km以上 14 88 1014
RJSS 190500Z 07007KT 9999 -SHRA FEW005 BKN040 BKN080 20/18 Q1007
RJSS 190400Z 09009KT 9999 FEW015 BKN040 BKN080 21/17 Q1007
RJSS 190300Z 07010KT 9999 FEW015 SCT040 BKN100 21/18 Q1007
RJSS 190200Z 08007KT 040V110 9999 FEW015 SCT040 BKN100 22/18 Q1007
RJSS 190100Z 07004KT 020V110 9999 FEW015 SCT050 BKN100 21/18 Q1008
RJSS 190000Z 02003KT 340V060 9999 -SHRA FEW015 BKN100 20/17 Q1008
RJSS 182300Z 02003KT 320V090 9999 -SHRA FEW015 SCT090 BKN120 20/17 Q1008
RJSS 182200Z VRB02KT 9999 FEW009 BKN150 19/17 Q1009
RJSS 182100Z 32003KT 9999 FEW002 SCT080 BKN100 18/17 Q1009
RJSS 182030Z 03001KT 9999 -SHRA FEW002 SCT040 BKN090 17/16 Q1009 RMK 1ST002 3CU040 7AC090 A2980
RJSS 181200Z VRB02KT 9999 FEW030 SCT100 BKN120 19/17 Q1010
RJSS 181100Z VRB01KT 9999 FEW020 FEW025CB 19/18 Q1010
RJSS 181000Z 23006KT 180V260 9999 VCSH FEW020 SCT025CB BKN030 21/17 Q1010
RJSS 180800Z VRB01KT 9999 FEW025 SCT040 20/16 Q1009
RJSS 180700Z 09004KT 360V150 9999 FEW025 SCT040 20/16 Q1010
RJSS 180600Z 05005KT 020V090 9999 FEW025 SCT040 19/17 Q1010
RJSS 180500Z 09006KT 9999 FEW025 SCT040 BKN100 20/15 Q1011
RJSS 180400Z 08008KT 9999 FEW025 SCT040 BKN100 18/12 Q1011
RJSS 180300Z 08008KT 9999 FEW025 SCT035 18/14 Q1012
RJSS 180200Z 07008KT 050V110 9999 FEW025 BKN/// 19/13 Q1013
RJSS 180100Z 10004KT 070V160 9999 FEW020 SCT030 BKN035 18/12 Q1013
RJSS 180000Z 15003KT 120V190 9999 FEW020 SCT035 BKN040 17/12 Q1013
RJSS 172300Z 17005KT 140V200 9999 -SHRA FEW010 SCT035 BKN040 17/14 Q1014
RJSS 172200Z 16004KT 9999 FEW030 BKN045 BKN050 16/14 Q1014
RJSS 172100Z 22003KT 9999 FEW030 BKN050 BKN060 15/12 Q1014
RJSS 172030Z VRB02KT 9999 FEW020 SCT060 BKN070 14/12 Q1014 RMK 1CU020 3SC060 7AC070 A2995